Time;durP1;ratioP1;P1;durP2;ratioP2;P2;SDS_P1;SDS_P2;PMS_P1;PMS_P2;Temp;Humidity;BMP_temperature;BMP_pressure;BME280_temperature;BME280_humidity;BME280_pressure;Samples;Min_cycle;Max_cycle;Signal;HPM_P1;HPM_P2
2022/04/05 00:01:56;;;;;;;9.55;2.22;;;4.00;99.90;;;;;;5012107;28;20030;-53
2022/04/05 00:04:22;;;;;;;12.73;2.92;;;4.00;99.90;;;;;;5012604;28;20030;-54
2022/04/05 00:06:47;;;;;;;9.45;1.98;;;4.00;99.90;;;;;;5012047;28;20468;-50
2022/04/05 00:09:13;;;;;;;8.85;2.17;;;4.00;99.90;;;;;;5011674;28;20026;-50
2022/04/05 00:11:39;;;;;;;8.95;2.20;;;4.00;99.90;;;;;;4995396;28;20026;-54
2022/04/05 00:14:04;;;;;;;11.00;2.42;;;4.10;99.90;;;;;;4992940;28;20049;-53
2022/04/05 00:16:30;;;;;;;10.38;2.00;;;4.10;99.90;;;;;;4993188;28;20058;-56
2022/04/05 00:18:55;;;;;;;11.55;2.50;;;4.10;99.90;;;;;;4994002;28;20034;-54
2022/04/05 00:21:21;;;;;;;13.77;3.00;;;4.10;99.90;;;;;;5006788;28;20034;-53
2022/04/05 00:23:46;;;;;;;13.15;3.78;;;4.10;99.90;;;;;;5011614;28;20551;-55
2022/04/05 00:26:12;;;;;;;14.65;2.90;;;4.20;99.90;;;;;;5012413;28;20510;-55
2022/04/05 00:28:38;;;;;;;11.15;2.63;;;4.20;99.90;;;;;;4993198;28;20042;-55
2022/04/05 00:31:03;;;;;;;10.43;2.35;;;4.20;99.90;;;;;;5004108;28;20080;-55
2022/04/05 00:33:29;;;;;;;10.52;1.95;;;4.20;99.90;;;;;;5011329;28;20038;-51
2022/04/05 00:35:55;;;;;;;10.02;2.50;;;4.20;99.90;;;;;;4994356;28;20030;-54
2022/04/05 00:38:20;;;;;;;14.75;3.17;;;4.20;99.90;;;;;;4993669;28;20026;-50
2022/04/05 00:40:46;;;;;;;9.98;2.70;;;4.20;99.90;;;;;;5025028;28;20026;-55
2022/04/05 00:43:11;;;;;;;12.73;3.05;;;4.20;99.90;;;;;;5001787;28;20170;-52
2022/04/05 00:45:37;;;;;;;11.20;2.88;;;4.20;99.90;;;;;;4992502;28;20042;-56
2022/04/05 00:48:04;;;;;;;8.93;2.50;;;4.20;99.90;;;;;;4995076;28;20080;-53
2022/04/05 00:50:34;;;;;;;12.35;2.45;;;4.10;99.90;;;;;;5009309;28;20030;-53
2022/04/05 00:53:02;;;;;;;9.60;2.28;;;4.10;99.90;;;;;;4997890;28;20485;-53
2022/04/05 00:55:28;;;;;;;8.77;2.47;;;4.10;99.90;;;;;;5011900;28;20399;-49
2022/04/05 00:57:57;;;;;;;11.23;2.75;;;4.10;99.90;;;;;;5001216;28;20081;-53
2022/04/05 01:00:23;;;;;;;14.40;2.15;;;4.10;99.90;;;;;;4991767;28;20034;-56
2022/04/05 01:02:50;;;;;;;14.50;2.90;;;4.10;99.90;;;;;;5008965;28;20034;-50
2022/04/05 01:05:19;;;;;;;10.73;1.92;;;4.10;99.90;;;;;;5010813;28;20117;-56
2022/04/05 01:07:49;;;;;;;11.25;2.53;;;4.10;99.90;;;;;;4998884;28;20088;-53
2022/04/05 01:10:14;;;;;;;13.25;2.67;;;4.10;99.90;;;;;;4990871;28;20543;-50
2022/04/05 01:12:41;;;;;;;9.55;3.25;;;4.20;99.90;;;;;;5024623;28;20116;-54
2022/04/05 01:15:07;;;;;;;18.73;2.80;;;4.10;99.90;;;;;;5011157;28;20087;-53
2022/04/05 01:17:34;;;;;;;8.82;2.60;;;4.10;99.90;;;;;;5009679;28;20120;-51
2022/04/05 01:20:01;;;;;;;10.18;2.40;;;4.20;99.90;;;;;;5009664;28;20044;-53
2022/04/05 01:22:26;;;;;;;16.10;3.45;;;4.20;99.90;;;;;;4992243;28;20145;-53
2022/04/05 01:24:52;;;;;;;10.73;2.55;;;4.10;99.90;;;;;;4993119;28;20133;-53
2022/04/05 01:27:19;;;;;;;8.48;2.65;;;4.20;99.90;;;;;;4993003;28;20592;-51
2022/04/05 01:29:46;;;;;;;9.52;2.55;;;4.10;99.90;;;;;;5006098;28;20117;-52
2022/04/05 01:32:11;;;;;;;15.27;3.30;;;4.20;99.90;;;;;;4995058;28;20084;-54
2022/04/05 01:34:38;;;;;;;12.60;2.05;;;4.20;99.90;;;;;;4991897;28;20038;-51
2022/04/05 01:37:09;;;;;;;12.38;2.38;;;4.10;99.90;;;;;;4992681;28;20038;-51
2022/04/05 01:39:37;;;;;;;9.38;2.75;;;4.10;99.90;;;;;;4991296;28;20026;-50
2022/04/05 01:42:05;;;;;;;16.67;3.50;;;4.10;99.90;;;;;;5002247;28;20034;-50
2022/04/05 01:44:33;;;;;;;11.93;1.90;;;4.10;99.90;;;;;;5002065;28;20038;-52
2022/04/05 01:47:09;;;;;;;9.45;2.03;;;4.20;99.90;;;;;;4992604;28;20034;-52
2022/04/05 01:49:35;;;;;;;14.25;2.13;;;4.20;99.90;;;;;;5000599;28;20483;-54
2022/04/05 01:52:01;;;;;;;8.52;1.48;;;4.20;99.90;;;;;;4996894;28;20125;-52
2022/04/05 01:54:26;;;;;;;9.13;1.63;;;4.20;99.90;;;;;;4990593;28;20604;-53
2022/04/05 01:56:52;;;;;;;5.78;1.75;;;4.20;99.90;;;;;;4990498;28;20015;-52
2022/04/05 01:59:22;;;;;;;11.25;2.22;;;4.20;99.90;;;;;;4990620;28;20038;-54
2022/04/05 02:01:48;;;;;;;11.45;1.83;;;4.20;99.90;;;;;;4990676;28;20015;-51
2022/04/05 02:04:14;;;;;;;9.15;1.90;;;4.20;99.90;;;;;;4994966;28;20387;-50
2022/04/05 02:06:41;;;;;;;4.35;1.30;;;4.30;99.90;;;;;;5010080;28;20022;-53
2022/04/05 02:09:07;;;;;;;8.52;1.67;;;4.20;99.90;;;;;;5009190;28;20103;-51
2022/04/05 02:11:33;;;;;;;7.75;1.45;;;4.20;99.90;;;;;;5009180;28;20036;-49
2022/04/05 02:13:59;;;;;;;6.43;1.33;;;4.20;99.90;;;;;;4994490;28;20026;-56
2022/04/05 02:16:26;;;;;;;10.48;1.63;;;4.20;99.90;;;;;;4998470;28;20030;-56
2022/04/05 02:18:52;;;;;;;7.35;1.77;;;4.10;99.90;;;;;;5008919;28;20046;-53
2022/04/05 02:21:17;;;;;;;8.93;1.63;;;4.10;99.90;;;;;;5003653;28;20061;-55
2022/04/05 02:23:43;;;;;;;6.35;1.88;;;4.10;99.90;;;;;;4987089;28;20050;-56
2022/04/05 02:26:09;;;;;;;8.48;1.63;;;4.10;99.90;;;;;;5003821;28;20026;-56
2022/04/05 02:28:35;;;;;;;7.38;1.23;;;4.10;99.90;;;;;;4990772;28;20045;-56
2022/04/05 02:31:00;;;;;;;12.80;1.73;;;4.00;99.90;;;;;;4994399;28;20080;-56
2022/04/05 02:33:26;;;;;;;7.07;1.58;;;4.00;99.90;;;;;;5009727;28;20041;-51
2022/04/05 02:35:52;;;;;;;8.07;1.67;;;4.00;99.90;;;;;;5009606;28;20030;-54
2022/04/05 02:38:18;;;;;;;4.38;1.30;;;4.00;99.90;;;;;;4991203;28;20101;-54
2022/04/05 02:40:43;;;;;;;7.60;1.90;;;4.00;99.90;;;;;;4991580;28;20097;-54
2022/04/05 02:43:09;;;;;;;13.57;2.47;;;3.90;99.90;;;;;;5009831;28;20644;-52
2022/04/05 02:45:35;;;;;;;1.23;0.85;;;3.80;99.90;;;;;;5009750;28;20544;-53
2022/04/05 02:48:00;;;;;;;6.45;1.50;;;3.80;99.90;;;;;;4994092;28;20039;-52
2022/04/05 02:50:26;;;;;;;9.20;1.70;;;3.90;99.90;;;;;;4993543;28;20060;-52
2022/04/05 02:52:52;;;;;;;6.22;1.13;;;3.80;99.90;;;;;;5009076;28;20030;-50
2022/04/05 02:55:18;;;;;;;6.00;1.05;;;3.80;99.90;;;;;;5008626;28;20566;-49
2022/04/05 02:57:45;;;;;;;8.20;1.48;;;3.80;99.90;;;;;;4992726;28;20102;-49
2022/04/05 03:00:13;;;;;;;3.50;1.00;;;3.80;99.90;;;;;;5010017;28;20022;-52
2022/04/05 03:02:39;;;;;;;6.90;1.35;;;3.70;99.90;;;;;;5009213;28;20022;-54
2022/04/05 03:05:06;;;;;;;6.75;1.27;;;3.70;99.90;;;;;;5008186;28;20112;-51
2022/04/05 03:07:34;;;;;;;6.47;0.95;;;3.60;99.90;;;;;;5009460;28;20025;-52
2022/04/05 03:10:00;;;;;;;6.13;1.50;;;3.50;99.90;;;;;;4990750;28;20102;-50
2022/04/05 03:12:26;;;;;;;5.70;1.13;;;3.50;99.90;;;;;;4993424;28;20191;-53
2022/04/05 03:14:51;;;;;;;6.28;1.50;;;3.50;99.90;;;;;;4994257;28;20511;-55
2022/04/05 03:17:17;;;;;;;5.63;1.25;;;3.50;99.90;;;;;;4994449;28;20092;-52
2022/04/05 03:19:43;;;;;;;3.38;0.80;;;3.50;99.90;;;;;;5009619;28;20022;-50
2022/04/05 03:22:11;;;;;;;5.55;1.42;;;3.40;99.90;;;;;;5012980;28;20030;-53
2022/04/05 03:24:37;;;;;;;6.90;1.63;;;3.40;99.90;;;;;;5012713;28;20099;-52
2022/04/05 03:27:03;;;;;;;6.80;1.67;;;3.40;99.90;;;;;;5010556;28;20065;-49
2022/04/05 03:29:29;;;;;;;4.00;1.23;;;3.30;99.90;;;;;;5012234;28;20515;-53
2022/04/05 03:31:55;;;;;;;3.08;0.80;;;3.30;99.90;;;;;;5011979;28;20073;-51
2022/04/05 03:34:21;;;;;;;7.05;1.45;;;3.30;99.90;;;;;;4993969;28;20026;-52
2022/04/05 03:36:46;;;;;;;7.40;1.50;;;3.30;99.90;;;;;;4993870;28;20084;-51
2022/04/05 03:39:13;;;;;;;1.92;0.63;;;3.30;99.90;;;;;;5005113;28;20030;-51
2022/04/05 03:41:43;;;;;;;6.28;1.40;;;3.20;99.90;;;;;;5004684;28;20026;-52
2022/04/05 03:44:08;;;;;;;5.00;1.10;;;3.20;99.90;;;;;;4994494;28;20030;-50
2022/04/05 03:46:34;;;;;;;11.13;1.85;;;3.10;99.90;;;;;;4993810;28;20030;-48
2022/04/05 03:49:00;;;;;;;6.90;1.92;;;3.10;99.90;;;;;;4997556;28;20034;-50
2022/04/05 03:51:26;;;;;;;4.57;1.20;;;3.10;99.90;;;;;;5002764;28;20041;-53
2022/04/05 03:53:54;;;;;;;5.22;1.13;;;3.10;99.90;;;;;;5012310;28;20041;-49
2022/04/05 03:56:20;;;;;;;7.90;1.55;;;3.00;99.90;;;;;;5009283;28;20033;-52
2022/04/05 03:58:46;;;;;;;11.80;2.08;;;3.00;99.90;;;;;;4994306;28;20412;-53
2022/04/05 04:01:12;;;;;;;6.55;1.15;;;3.00;99.90;;;;;;5004121;28;20053;-50
2022/04/05 04:03:37;;;;;;;2.00;0.95;;;3.00;99.90;;;;;;5008259;28;20510;-51
2022/04/05 04:06:03;;;;;;;4.78;1.52;;;2.90;99.90;;;;;;4993316;28;20401;-53
2022/04/05 04:08:28;;;;;;;6.35;1.23;;;2.90;99.90;;;;;;4993619;28;20218;-54
2022/04/05 04:10:54;;;;;;;4.35;0.88;;;2.90;99.90;;;;;;4994001;28;20040;-53
2022/04/05 04:13:20;;;;;;;5.85;1.40;;;2.80;99.90;;;;;;4992755;28;20081;-53
2022/04/05 04:15:45;;;;;;;7.57;1.60;;;2.80;99.90;;;;;;4992678;28;20042;-53
2022/04/05 04:18:11;;;;;;;3.80;1.10;;;2.80;99.90;;;;;;4992580;28;20023;-54
2022/04/05 04:20:42;;;;;;;7.55;1.33;;;2.70;99.90;;;;;;4994696;28;20110;-52
2022/04/05 04:23:08;;;;;;;8.18;1.63;;;2.70;99.90;;;;;;5010672;28;20037;-54
2022/04/05 04:25:34;;;;;;;11.75;1.55;;;2.70;99.90;;;;;;5011812;28;20515;-51
2022/04/05 04:28:00;;;;;;;9.10;1.98;;;2.70;99.90;;;;;;5001428;28;20118;-51
2022/04/05 04:30:26;;;;;;;7.70;1.40;;;2.60;99.90;;;;;;4998200;28;20104;-52
2022/04/05 04:32:53;;;;;;;8.27;1.38;;;2.60;99.90;;;;;;5012050;28;20034;-55
2022/04/05 04:35:20;;;;;;;3.60;1.25;;;2.50;99.90;;;;;;5011298;28;20095;-50
2022/04/05 04:37:45;;;;;;;5.13;1.67;;;2.50;99.90;;;;;;5010546;28;20034;-50
2022/04/05 04:40:12;;;;;;;4.18;0.93;;;2.50;99.90;;;;;;5008169;28;20037;-55
2022/04/05 04:42:37;;;;;;;10.43;2.03;;;2.50;99.90;;;;;;4992010;28;20042;-51
2022/04/05 04:45:04;;;;;;;9.32;1.67;;;2.50;99.90;;;;;;4992933;28;20026;-51
2022/04/05 04:47:29;;;;;;;4.43;1.48;;;2.50;99.90;;;;;;5002055;28;20069;-54
2022/04/05 04:49:55;;;;;;;7.00;2.25;;;2.50;99.90;;;;;;5010510;28;20519;-52
2022/04/05 04:52:21;;;;;;;7.18;1.98;;;2.40;99.90;;;;;;4997134;28;20038;-51
2022/04/05 04:54:46;;;;;;;4.65;1.40;;;2.40;99.90;;;;;;5011390;28;20029;-51
2022/04/05 04:57:12;;;;;;;6.68;2.05;;;2.40;99.90;;;;;;5002641;28;20096;-53
2022/04/05 04:59:37;;;;;;;6.95;1.95;;;2.40;99.90;;;;;;4991862;28;20515;-52
2022/04/05 05:02:03;;;;;;;7.72;2.05;;;2.40;99.90;;;;;;4991862;28;20048;-54
2022/04/05 05:04:30;;;;;;;9.27;1.80;;;2.40;99.90;;;;;;4993202;28;20038;-50
2022/04/05 05:06:55;;;;;;;7.82;1.42;;;2.40;99.90;;;;;;5003106;28;20026;-52
2022/04/05 05:09:21;;;;;;;7.50;1.35;;;2.40;99.90;;;;;;5009442;28;20041;-55
2022/04/05 05:11:47;;;;;;;5.20;1.55;;;2.40;99.90;;;;;;4993493;28;20495;-53
2022/04/05 05:14:12;;;;;;;6.63;1.58;;;2.50;99.90;;;;;;4991938;28;20029;-53
2022/04/05 05:16:38;;;;;;;3.78;1.20;;;2.40;99.90;;;;;;4993890;28;20028;-55
2022/04/05 05:19:05;;;;;;;5.47;1.48;;;2.50;99.90;;;;;;5011126;28;20472;-53
2022/04/05 05:21:31;;;;;;;15.70;2.10;;;2.50;99.90;;;;;;4995591;28;20026;-51
2022/04/05 05:23:56;;;;;;;6.90;2.15;;;2.50;99.90;;;;;;4991747;28;20034;-52
2022/04/05 05:26:22;;;;;;;6.57;1.45;;;2.60;99.90;;;;;;4991610;28;20408;-52
2022/04/05 05:28:48;;;;;;;5.50;1.88;;;2.70;99.90;;;;;;4999349;28;20513;-54
2022/04/05 05:31:13;;;;;;;8.40;1.35;;;2.70;99.90;;;;;;4997400;28;20037;-53
2022/04/05 05:33:39;;;;;;;8.20;2.08;;;2.70;99.90;;;;;;4991533;28;20400;-51
2022/04/05 05:36:04;;;;;;;7.82;2.08;;;2.70;99.90;;;;;;5008849;28;20634;-50
2022/04/05 05:38:31;;;;;;;7.40;2.13;;;2.70;99.90;;;;;;5011225;28;20021;-54
2022/04/05 05:40:56;;;;;;;3.42;1.17;;;2.80;99.90;;;;;;5010908;28;20100;-54
2022/04/05 05:43:23;;;;;;;5.53;1.13;;;2.80;99.90;;;;;;4996252;28;20109;-54
2022/04/05 05:45:49;;;;;;;4.65;0.80;;;2.90;99.90;;;;;;4992653;28;20665;-51
2022/04/05 05:48:15;;;;;;;9.48;1.75;;;2.90;99.90;;;;;;4990681;28;20105;-52
2022/04/05 05:50:40;;;;;;;5.85;1.27;;;2.90;99.90;;;;;;5002631;28;20097;-52
2022/04/05 05:53:06;;;;;;;7.65;2.15;;;3.00;99.90;;;;;;5025693;22;20125;-51
2022/04/05 05:55:33;;;;;;;9.20;1.35;;;3.00;99.90;;;;;;5008527;28;20117;-51
2022/04/05 05:57:58;;;;;;;10.80;1.73;;;3.00;99.90;;;;;;5010561;28;20455;-52
2022/04/05 06:00:24;;;;;;;4.63;1.25;;;3.10;99.90;;;;;;5010241;28;20053;-53
2022/04/05 06:02:56;;;;;;;4.15;2.15;;;3.10;99.90;;;;;;5010553;28;20036;-51
2022/04/05 06:05:23;;;;;;;5.72;1.63;;;3.10;99.90;;;;;;5010934;28;20034;-51
2022/04/05 06:07:48;;;;;;;3.72;1.25;;;3.20;99.90;;;;;;5010442;28;20032;-50
2022/04/05 06:10:15;;;;;;;6.28;1.35;;;3.20;99.90;;;;;;5010046;28;20034;-51
2022/04/05 06:12:43;;;;;;;4.43;1.50;;;3.30;99.90;;;;;;4990474;28;20580;-50
2022/04/05 06:15:11;;;;;;;5.28;1.60;;;3.40;99.90;;;;;;5003620;28;20108;-50
2022/04/05 06:17:38;;;;;;;10.07;1.73;;;3.40;99.90;;;;;;5009972;28;20022;-50
2022/04/05 06:20:06;;;;;;;6.05;1.75;;;3.50;99.90;;;;;;5009599;28;20093;-52
2022/04/05 06:22:40;;;;;;;3.10;1.02;;;3.50;99.90;;;;;;5009549;28;20095;-50
2022/04/05 06:25:06;;;;;;;5.13;1.63;;;3.60;99.90;;;;;;5010183;28;20508;-52
2022/04/05 06:27:31;;;;;;;9.50;1.63;;;3.60;99.90;;;;;;5009608;28;20535;-51
2022/04/05 06:29:57;;;;;;;6.05;1.75;;;3.60;99.90;;;;;;5009509;28;20030;-53
2022/04/05 06:32:22;;;;;;;8.27;2.03;;;3.70;99.90;;;;;;5008238;28;20032;-50
2022/04/05 06:34:48;;;;;;;1.45;0.77;;;3.80;99.90;;;;;;5009339;28;20022;-50
2022/04/05 06:37:13;;;;;;;7.03;1.30;;;3.90;99.90;;;;;;5009564;28;20037;-51
2022/04/05 06:39:39;;;;;;;7.97;2.00;;;4.00;99.90;;;;;;5009675;28;20018;-51
2022/04/05 06:42:05;;;;;;;6.55;1.42;;;4.10;99.90;;;;;;5009940;28;20044;-52
2022/04/05 06:44:30;;;;;;;5.00;1.40;;;4.30;99.90;;;;;;5010028;28;20507;-52
2022/04/05 06:46:56;;;;;;;5.13;1.80;;;4.30;99.90;;;;;;5009182;28;20029;-53
2022/04/05 06:49:21;;;;;;;9.77;1.90;;;4.40;99.90;;;;;;5009706;28;20393;-50
2022/04/05 06:51:47;;;;;;;4.63;1.02;;;4.50;99.90;;;;;;5009661;28;20053;-51
2022/04/05 06:54:12;;;;;;;5.72;1.88;;;4.50;99.90;;;;;;5009475;28;20041;-52
2022/04/05 06:56:38;;;;;;;7.93;1.90;;;4.60;99.90;;;;;;5009214;28;20041;-52
2022/04/05 06:59:03;;;;;;;11.93;2.25;;;4.70;99.90;;;;;;5009532;28;20100;-50
2022/04/05 07:01:31;;;;;;;8.23;1.20;;;4.70;99.90;;;;;;5009499;28;20488;-51
2022/04/05 07:03:57;;;;;;;6.20;1.58;;;4.70;99.90;;;;;;5009463;28;20022;-51
2022/04/05 07:06:22;;;;;;;9.15;2.20;;;4.80;99.90;;;;;;5009398;28;20040;-52
2022/04/05 07:08:49;;;;;;;4.95;1.52;;;4.90;99.90;;;;;;5009495;28;20034;-50
2022/04/05 07:11:15;;;;;;;5.70;1.65;;;5.00;99.90;;;;;;5009741;28;20026;-51
2022/04/05 07:13:41;;;;;;;5.55;2.30;;;5.10;99.90;;;;;;5009009;28;20080;-53
2022/04/05 07:16:06;;;;;;;8.48;1.92;;;5.20;99.90;;;;;;5009784;28;20026;-51
2022/04/05 07:18:32;;;;;;;7.35;2.13;;;5.30;99.90;;;;;;5008104;28;20438;-51
2022/04/05 07:20:58;;;;;;;9.10;1.70;;;5.40;99.90;;;;;;5009747;28;20018;-50
2022/04/05 07:23:23;;;;;;;7.88;1.83;;;5.60;99.90;;;;;;5009067;28;20029;-51
2022/04/05 07:25:49;;;;;;;15.85;1.77;;;5.70;99.90;;;;;;5012130;28;20026;-50
2022/04/05 07:28:14;;;;;;;6.60;1.25;;;5.80;99.90;;;;;;5016816;28;20040;-51
2022/04/05 07:30:40;;;;;;;4.68;1.60;;;5.80;99.90;;;;;;5009405;28;20033;-52
2022/04/05 07:33:05;;;;;;;6.75;1.20;;;6.00;99.90;;;;;;5008720;28;20180;-50
2022/04/05 07:35:31;;;;;;;6.53;1.45;;;6.10;99.90;;;;;;5009608;28;20026;-52
2022/04/05 07:37:56;;;;;;;7.32;1.25;;;6.10;99.90;;;;;;5009187;28;20075;-49
2022/04/05 07:40:22;;;;;;;7.10;1.58;;;6.00;99.90;;;;;;5009252;28;20503;-51
2022/04/05 07:42:48;;;;;;;9.00;1.40;;;6.00;99.90;;;;;;5009101;28;20038;-51
2022/04/05 07:45:15;;;;;;;12.43;2.55;;;6.00;99.90;;;;;;5008838;28;20034;-54
2022/04/05 07:47:41;;;;;;;6.85;1.77;;;6.10;99.90;;;;;;5009357;28;20022;-50
2022/04/05 07:50:09;;;;;;;8.30;1.88;;;6.20;99.90;;;;;;5008696;28;20030;-52
2022/04/05 07:52:34;;;;;;;12.85;1.90;;;6.30;99.90;;;;;;5008464;28;20120;-52
2022/04/05 07:55:00;;;;;;;5.93;1.63;;;6.40;99.90;;;;;;5009012;28;20109;-50
2022/04/05 07:57:26;;;;;;;3.75;1.02;;;6.50;99.90;;;;;;5009237;28;20029;-51
2022/04/05 07:59:51;;;;;;;6.03;1.38;;;6.60;99.90;;;;;;5011571;28;20044;-51
2022/04/05 08:02:18;;;;;;;6.82;1.30;;;6.60;99.90;;;;;;5012429;28;20118;-51
2022/04/05 08:04:44;;;;;;;6.38;1.60;;;6.50;99.90;;;;;;5013462;28;20022;-51
2022/04/05 08:07:09;;;;;;;5.80;1.50;;;6.50;99.90;;;;;;5012514;28;20508;-50
2022/04/05 08:09:35;;;;;;;10.60;1.73;;;6.50;99.90;;;;;;5012184;28;20014;-53
2022/04/05 08:12:00;;;;;;;8.10;1.77;;;6.40;99.90;;;;;;5012279;28;20018;-49
2022/04/05 08:14:29;;;;;;;6.22;1.38;;;6.30;99.90;;;;;;5012645;28;20026;-51
2022/04/05 08:16:57;;;;;;;7.45;1.30;;;6.20;99.90;;;;;;5012275;28;20017;-55
2022/04/05 08:19:23;;;;;;;1.95;0.80;;;6.20;99.90;;;;;;5012093;28;20028;-51
2022/04/05 08:21:49;;;;;;;4.95;0.85;;;6.30;99.90;;;;;;5012303;28;20026;-54
2022/04/05 08:24:14;;;;;;;3.55;1.20;;;6.30;99.90;;;;;;5011446;28;20036;-53
2022/04/05 08:26:40;;;;;;;5.60;1.25;;;6.40;99.90;;;;;;5012193;28;20030;-49
2022/04/05 08:29:05;;;;;;;1.38;0.55;;;6.30;99.90;;;;;;5012035;28;20022;-50
2022/04/05 08:31:31;;;;;;;3.53;1.55;;;6.30;99.90;;;;;;5012103;28;20412;-50
2022/04/05 08:33:56;;;;;;;7.25;1.55;;;6.30;99.90;;;;;;5011575;28;20034;-51
2022/04/05 08:36:22;;;;;;;3.38;0.95;;;6.40;99.90;;;;;;5011624;28;20033;-51
2022/04/05 08:38:48;;;;;;;4.65;1.33;;;6.40;99.90;;;;;;5012184;28;20029;-53
2022/04/05 08:41:18;;;;;;;4.07;1.23;;;6.40;99.90;;;;;;5011803;28;20050;-55
2022/04/05 08:43:44;;;;;;;3.60;1.08;;;6.40;99.90;;;;;;5010237;28;20026;-50
2022/04/05 08:46:10;;;;;;;3.22;0.93;;;6.10;99.90;;;;;;5011729;28;20042;-52
2022/04/05 08:48:36;;;;;;;1.70;0.70;;;5.70;99.90;;;;;;5011728;28;20199;-51
2022/04/05 08:51:03;;;;;;;3.75;0.75;;;5.60;99.90;;;;;;5010283;28;20038;-53
2022/04/05 08:53:32;;;;;;;2.30;0.70;;;5.50;99.90;;;;;;5011441;28;20522;-54
2022/04/05 08:55:58;;;;;;;2.45;0.47;;;5.50;99.90;;;;;;5011313;28;20030;-52
2022/04/05 08:58:24;;;;;;;3.13;0.82;;;5.70;99.90;;;;;;5012873;28;20049;-53
2022/04/05 09:00:52;;;;;;;3.10;0.90;;;6.00;99.90;;;;;;5011464;28;20068;-52
2022/04/05 09:03:17;;;;;;;2.03;0.93;;;6.20;99.90;;;;;;5011597;28;20018;-54
2022/04/05 09:05:44;;;;;;;4.55;0.85;;;6.30;99.90;;;;;;5011265;28;20164;-49
2022/04/05 09:08:17;;;;;;;4.22;1.35;;;6.50;99.90;;;;;;5011839;28;20036;-52
2022/04/05 09:10:44;;;;;;;4.25;0.73;;;6.60;99.90;;;;;;5011612;28;20022;-53
2022/04/05 09:13:12;;;;;;;3.17;0.70;;;6.70;99.90;;;;;;5010685;28;20590;-52
2022/04/05 09:15:41;;;;;;;2.65;1.17;;;6.80;99.90;;;;;;5011299;28;20033;-52
2022/04/05 09:18:07;;;;;;;3.85;0.85;;;6.80;99.90;;;;;;5011908;28;20034;-52
2022/04/05 09:20:45;;;;;;;4.47;1.63;;;6.90;99.90;;;;;;5011409;28;20034;-51
2022/04/05 09:23:27;;;;;;;4.53;1.00;;;6.90;99.90;;;;;;4991803;28;20038;-54
2022/04/05 09:25:59;;;;;;;5.03;0.88;;;7.10;99.90;;;;;;4995778;28;20033;-50
2022/04/05 09:28:30;;;;;;;4.68;1.10;;;7.10;99.90;;;;;;5013763;28;20033;-52
2022/04/05 09:30:58;;;;;;;5.00;1.10;;;7.10;99.90;;;;;;5025551;28;20025;-52
2022/04/05 09:33:24;;;;;;;4.13;1.13;;;7.10;99.90;;;;;;5030663;28;20036;-51
2022/04/05 09:35:55;;;;;;;5.22;1.65;;;7.20;99.90;;;;;;5014571;28;20041;-50
2022/04/05 09:38:20;;;;;;;5.10;1.25;;;7.20;99.90;;;;;;5010798;28;20053;-55
2022/04/05 09:40:52;;;;;;;1.85;0.98;;;7.30;99.90;;;;;;5009422;28;20488;-49
2022/04/05 09:43:18;;;;;;;10.90;1.73;;;7.50;99.90;;;;;;5010174;28;20021;-52
2022/04/05 09:45:58;;;;;;;6.60;1.00;;;7.80;99.90;;;;;;5011172;28;20030;-54
2022/04/05 09:48:29;;;;;;;6.35;1.20;;;8.00;99.90;;;;;;5010811;28;20514;-52
2022/04/05 09:51:09;;;;;;;7.78;1.40;;;8.10;99.90;;;;;;5011112;28;20390;-52
2022/04/05 09:53:47;;;;;;;3.65;1.08;;;8.20;99.90;;;;;;5010114;28;20030;-51
2022/04/05 09:56:17;;;;;;;3.88;1.33;;;8.20;99.90;;;;;;5010870;28;20025;-52
2022/04/05 09:58:46;;;;;;;4.88;1.20;;;8.30;99.90;;;;;;5010621;28;20026;-52
2022/04/05 10:01:13;;;;;;;5.93;0.95;;;8.20;99.90;;;;;;5010433;28;20510;-54
2022/04/05 10:03:40;;;;;;;4.57;1.50;;;8.30;99.90;;;;;;5010141;28;20165;-53
2022/04/05 10:06:06;;;;;;;6.00;1.70;;;8.30;99.90;;;;;;4999002;28;20065;-51
2022/04/05 10:08:33;;;;;;;5.38;1.25;;;8.20;99.90;;;;;;5007992;28;20038;-51
2022/04/05 10:11:00;;;;;;;5.45;1.27;;;8.10;99.90;;;;;;4992364;28;20429;-52
2022/04/05 10:13:27;;;;;;;7.32;1.00;;;8.00;99.90;;;;;;5004304;28;20629;-52
2022/04/05 10:15:54;;;;;;;5.85;1.48;;;7.80;99.90;;;;;;5010369;28;20025;-53
2022/04/05 10:18:20;;;;;;;7.03;1.83;;;7.70;99.90;;;;;;5011165;28;20017;-51
2022/04/05 10:20:50;;;;;;;6.03;1.08;;;7.60;99.90;;;;;;5009745;28;20033;-49
2022/04/05 10:23:22;;;;;;;6.85;2.50;;;7.30;99.90;;;;;;5009955;28;20112;-53
2022/04/05 10:25:51;;;;;;;6.30;0.88;;;7.30;99.90;;;;;;5009759;28;20396;-54
2022/04/05 10:28:19;;;;;;;2.65;0.88;;;7.20;99.90;;;;;;5010202;28;20026;-52
2022/04/05 10:30:56;;;;;;;4.75;1.02;;;7.20;99.90;;;;;;5009864;28;20034;-54
2022/04/05 10:33:45;;;;;;;6.40;1.50;;;7.30;99.90;;;;;;5009669;28;20030;-53
2022/04/05 10:36:11;;;;;;;5.50;1.48;;;7.30;99.90;;;;;;5008933;28;20029;-52
2022/04/05 10:38:36;;;;;;;5.72;1.15;;;7.20;99.90;;;;;;5009615;28;20112;-52
2022/04/05 10:41:16;;;;;;;4.68;1.05;;;7.30;99.90;;;;;;5010056;28;20033;-52
2022/04/05 10:43:44;;;;;;;6.93;1.13;;;7.20;99.90;;;;;;5009108;28;20040;-50
2022/04/05 10:46:10;;;;;;;3.97;1.02;;;7.20;99.90;;;;;;5010047;28;20046;-51
2022/04/05 10:48:35;;;;;;;5.43;1.10;;;7.30;99.90;;;;;;5009548;28;20436;-54
2022/04/05 10:51:01;;;;;;;3.10;1.10;;;7.30;99.90;;;;;;5009948;28;20057;-56
2022/04/05 10:53:34;;;;;;;4.68;0.68;;;7.30;99.90;;;;;;5009017;28;20115;-52
2022/04/05 10:56:03;;;;;;;4.57;1.15;;;7.40;99.90;;;;;;5008515;28;20065;-52
2022/04/05 10:58:31;;;;;;;4.55;1.25;;;7.50;99.90;;;;;;5009476;28;20034;-53
2022/04/05 11:01:11;;;;;;;7.40;1.15;;;7.60;99.90;;;;;;5009942;28;20073;-53
2022/04/05 11:03:37;;;;;;;5.15;0.90;;;7.70;99.90;;;;;;5009075;28;20030;-53
2022/04/05 11:06:03;;;;;;;2.60;1.02;;;7.60;99.90;;;;;;5009915;28;20045;-50
2022/04/05 11:08:31;;;;;;;2.70;1.30;;;7.60;99.90;;;;;;5009374;28;20066;-53
2022/04/05 11:11:01;;;;;;;5.30;2.30;;;7.50;99.90;;;;;;5009975;28;20030;-51
2022/04/05 11:13:42;;;;;;;4.00;0.98;;;7.60;99.90;;;;;;5009493;28;20389;-52
2022/04/05 11:16:10;;;;;;;2.10;0.82;;;7.70;99.90;;;;;;4990357;28;20061;-52
2022/04/05 11:18:37;;;;;;;3.38;0.77;;;7.70;99.90;;;;;;4999564;28;20396;-55
2022/04/05 11:21:08;;;;;;;3.33;1.17;;;7.80;99.90;;;;;;5009853;28;20558;-51
2022/04/05 11:23:51;;;;;;;5.35;1.48;;;7.80;99.90;;;;;;5008248;28;20030;-52
2022/04/05 11:26:29;;;;;;;5.32;1.00;;;7.80;99.90;;;;;;5007698;28;20026;-53
2022/04/05 11:28:56;;;;;;;4.40;0.90;;;7.90;99.90;;;;;;5010264;28;20097;-52
2022/04/05 11:31:31;;;;;;;6.57;1.63;;;7.80;99.90;;;;;;5017574;28;20116;-52
2022/04/05 11:33:57;;;;;;;4.13;1.58;;;7.70;99.90;;;;;;5029155;28;20125;-53
2022/04/05 11:36:25;;;;;;;4.03;1.35;;;7.70;99.90;;;;;;5032971;28;20653;-52
2022/04/05 11:38:53;;;;;;;6.60;2.13;;;7.70;99.90;;;;;;5033171;28;20083;-53
2022/04/05 11:41:22;;;;;;;5.65;1.10;;;7.70;99.90;;;;;;5033102;28;20080;-52
2022/04/05 11:43:52;;;;;;;3.17;1.67;;;7.50;99.90;;;;;;5031562;28;20025;-52
2022/04/05 11:46:35;;;;;;;2.65;1.25;;;7.40;99.90;;;;;;5032630;28;20025;-51
2022/04/05 11:49:13;;;;;;;4.32;1.48;;;7.40;99.90;;;;;;5033453;28;20060;-52
2022/04/05 11:51:51;;;;;;;4.43;1.42;;;7.40;99.90;;;;;;5032917;28;20040;-51
2022/04/05 11:54:27;;;;;;;6.88;1.40;;;7.30;99.90;;;;;;5047613;28;20055;-52
2022/04/05 11:56:54;;;;;;;12.63;1.30;;;7.20;99.90;;;;;;5047759;28;20717;-54
2022/04/05 11:59:27;;;;;;;3.67;1.30;;;7.20;99.90;;;;;;5011809;28;20030;-52
2022/04/05 12:01:52;;;;;;;4.05;1.55;;;7.20;99.90;;;;;;5012058;28;20034;-51
2022/04/05 12:04:21;;;;;;;5.88;0.95;;;7.10;99.90;;;;;;5012748;28;20084;-52
2022/04/05 12:06:52;;;;;;;0.75;0.32;;;7.10;99.90;;;;;;5012402;28;20400;-54
2022/04/05 12:09:20;;;;;;;1.92;0.70;;;7.00;99.90;;;;;;5012238;28;20033;-52
2022/04/05 12:11:48;;;;;;;2.78;0.85;;;7.00;99.90;;;;;;5012446;28;20121;-53
2022/04/05 12:14:16;;;;;;;3.08;1.17;;;7.10;99.90;;;;;;5011872;28;20064;-55
2022/04/05 12:16:48;;;;;;;3.38;1.05;;;7.10;99.90;;;;;;5012279;28;20076;-52
2022/04/05 12:19:24;;;;;;;3.13;0.95;;;7.10;99.90;;;;;;5012334;28;20021;-55
2022/04/05 12:22:00;;;;;;;2.67;0.80;;;7.30;99.90;;;;;;5012393;28;20038;-53
2022/04/05 12:24:26;;;;;;;2.72;0.90;;;7.40;99.90;;;;;;5011654;28;20100;-52
2022/04/05 12:26:55;;;;;;;2.80;0.88;;;7.40;99.90;;;;;;5012604;28;20022;-52
2022/04/05 12:29:21;;;;;;;3.97;0.82;;;7.40;99.90;;;;;;5012478;28;20100;-53
2022/04/05 12:31:47;;;;;;;2.55;0.98;;;7.50;99.90;;;;;;5012171;28;20117;-53
2022/04/05 12:34:13;;;;;;;3.45;1.00;;;7.40;99.90;;;;;;5011472;28;20029;-51
2022/04/05 12:36:42;;;;;;;4.65;1.48;;;7.40;99.90;;;;;;5011414;28;20500;-53
2022/04/05 12:39:24;;;;;;;4.82;1.30;;;7.50;99.90;;;;;;5011401;28;20407;-52
2022/04/05 12:41:53;;;;;;;3.20;0.65;;;7.50;99.90;;;;;;4994255;28;20026;-52
2022/04/05 12:44:21;;;;;;;6.90;1.02;;;7.50;99.90;;;;;;5007066;28;20387;-50
2022/04/05 12:46:51;;;;;;;5.35;0.88;;;7.40;99.90;;;;;;5011221;28;20479;-53
2022/04/05 12:49:34;;;;;;;2.03;0.70;;;7.40;99.90;;;;;;5011524;28;20112;-51
2022/04/05 12:52:09;;;;;;;4.07;0.95;;;7.30;99.90;;;;;;5011251;28;20026;-52
2022/04/05 12:54:37;;;;;;;2.10;1.05;;;7.20;99.90;;;;;;5011651;28;20030;-51
2022/04/05 12:57:34;;;;;;;5.53;1.05;;;7.20;99.90;;;;;;5010828;28;21553;-51